Dawson, North Dakota
Current Conditions -  °F | °C
As of 4:52 PM on Saturday 25 Oct 2014 (Local Time) from KBIS Reporting Station
Clear Clear  
Wind Chill: 64°   Ceiling: Unl
Heat Index: 64°   Visibility: 10mi
Dew Point: 29°   Wind: 8mph
Humidity: 27%   Direction: 150°SSE
Pressure: 30.06"   Gusts: NA
Location:  46.87°N, 99.75°W
Report Text: KBIS 252152Z 15007KT 10SM CLR 18/M02 A3006 RMK AO2 SLP182 T01781017
Loading
Personal Weather Stations






























Interactive Weather Map New forecast layout! Learn more

10-Day Weather Forecast

Advertisements
Track Severe Weather on mobile